createdAt,value
2023-03-17T00:02:45.148Z,6.48
2023-03-17T00:06:45.136Z,6.55
2023-03-17T00:10:45.415Z,6.53
2023-03-17T00:14:45.291Z,6.59
2023-03-17T00:18:45.416Z,6.52
2023-03-17T00:22:45.599Z,6.14
2023-03-17T00:26:45.672Z,6.44
2023-03-17T00:30:45.785Z,6.68
2023-03-17T00:34:45.961Z,7.10
2023-03-17T00:38:46.021Z,7.02
2023-03-17T00:42:46.192Z,7.23
2023-03-17T00:46:46.487Z,7.37
2023-03-17T00:50:46.436Z,7.83
2023-03-17T00:54:46.536Z,7.73
2023-03-17T00:58:46.876Z,7.74
2023-03-17T01:02:46.862Z,6.89
2023-03-17T01:06:47.074Z,7.27
2023-03-17T01:10:47.044Z,7.49
2023-03-17T01:14:47.153Z,6.72
2023-03-17T01:18:47.252Z,6.69
2023-03-17T01:22:47.322Z,6.28
2023-03-17T01:26:47.671Z,6.34
2023-03-17T01:30:47.868Z,6.26
2023-03-17T01:34:47.758Z,6.39
2023-03-17T01:38:47.818Z,7.06
2023-03-17T01:42:47.939Z,6.44
2023-03-17T01:46:48.435Z,6.83
2023-03-17T01:50:48.377Z,6.68
2023-03-17T01:54:49.272Z,6.35
2023-03-17T01:58:48.449Z,6.18
2023-03-17T02:02:48.576Z,6.95
2023-03-17T02:06:57.468Z,7.52
2023-03-17T02:10:49.625Z,7.16
2023-03-17T02:14:48.630Z,6.96
2023-03-17T02:18:48.620Z,6.42
2023-03-17T02:22:48.765Z,6.45
2023-03-17T02:26:49.150Z,5.98
2023-03-17T02:30:49.345Z,5.75
2023-03-17T02:34:49.237Z,5.77
2023-03-17T02:38:49.405Z,6.67
2023-03-17T02:42:49.441Z,7.10
2023-03-17T02:46:49.544Z,7.09
2023-03-17T02:50:49.916Z,6.88
2023-03-17T02:54:50.084Z,7.17
2023-03-17T02:58:49.938Z,6.61
2023-03-17T03:02:50.040Z,6.73
2023-03-17T03:06:50.169Z,6.34
2023-03-17T03:10:50.295Z,6.55
2023-03-17T03:14:50.325Z,6.52
2023-03-17T03:18:50.381Z,6.39
2023-03-17T03:22:50.564Z,7.24
2023-03-17T03:26:50.700Z,7.47
2023-03-17T03:30:51.031Z,7.80
2023-03-17T03:34:51.090Z,8.11
2023-03-17T03:38:51.161Z,8.17
2023-03-17T03:42:51.076Z,6.82
2023-03-17T03:46:51.577Z,6.64
2023-03-17T03:50:51.758Z,6.35
2023-03-17T03:54:51.370Z,7.00
2023-03-17T03:58:51.663Z,6.35
2023-03-17T04:02:51.930Z,6.56
2023-03-17T04:06:52.096Z,6.58
2023-03-17T04:10:52.094Z,5.82
2023-03-17T04:14:52.302Z,5.41
2023-03-17T04:18:52.259Z,6.55
2023-03-17T04:22:52.317Z,7.02
2023-03-17T04:26:52.369Z,6.10
2023-03-17T04:30:52.512Z,5.70
2023-03-17T04:34:52.602Z,6.11
2023-03-17T04:38:52.761Z,5.49
2023-03-17T04:42:52.870Z,6.07
2023-03-17T04:46:53.041Z,7.37
2023-03-17T04:50:53.087Z,7.07
2023-03-17T04:54:53.485Z,6.61
2023-03-17T04:58:53.502Z,7.45
2023-03-17T05:02:53.437Z,7.00
2023-03-17T05:06:53.673Z,7.90
2023-03-17T05:10:53.783Z,7.23
2023-03-17T05:14:53.866Z,7.03
2023-03-17T05:18:53.919Z,6.82
2023-03-17T05:22:54.108Z,6.53
2023-03-17T05:26:54.139Z,6.81
2023-03-17T05:30:54.412Z,6.39
2023-03-17T05:34:54.445Z,6.92
2023-03-17T05:38:54.555Z,7.66
2023-03-17T05:42:54.684Z,6.53
2023-03-17T05:46:54.772Z,7.16
2023-03-17T05:50:54.935Z,6.81
2023-03-17T05:54:55.070Z,7.22
2023-03-17T05:58:55.204Z,7.47
2023-03-17T06:02:55.301Z,7.66
2023-03-17T06:06:55.394Z,7.70
2023-03-17T06:10:55.472Z,7.80
2023-03-17T06:14:55.611Z,7.86
2023-03-17T06:18:55.718Z,7.76
2023-03-17T06:23:04.512Z,8.33
2023-03-17T06:26:56.789Z,8.45
2023-03-17T06:30:55.772Z,9.19
2023-03-17T06:34:55.796Z,9.53
2023-03-17T06:38:56.048Z,9.93
2023-03-17T06:42:56.065Z,9.55
2023-03-17T06:46:56.216Z,10.09
2023-03-17T06:50:56.527Z,10.85
2023-03-17T06:54:56.489Z,10.73
2023-03-17T06:58:56.540Z,10.80
2023-03-17T07:02:56.545Z,10.83
2023-03-17T07:06:56.762Z,11.14
2023-03-17T07:10:57.012Z,11.05
2023-03-17T07:14:57.253Z,10.91
2023-03-17T07:18:57.186Z,11.27
2023-03-17T07:22:57.267Z,11.59
2023-03-17T07:26:57.325Z,12.15
2023-03-17T07:30:57.422Z,11.61
2023-03-17T07:34:57.737Z,11.78
2023-03-17T07:38:58.017Z,12.55
2023-03-17T07:42:57.781Z,12.33
2023-03-17T07:46:58.649Z,12.01
2023-03-17T07:51:12.327Z,12.29
